createdAt,value
2022-12-18T00:01:20.856Z,21.88
2022-12-18T00:03:47.899Z,24.08
2022-12-18T00:06:16.426Z,23.30
2022-12-18T00:08:43.275Z,23.15
2022-12-18T00:11:12.908Z,22.60
2022-12-18T00:13:39.893Z,22.33
2022-12-18T00:16:10.776Z,21.65
2022-12-18T00:18:38.091Z,20.30
2022-12-18T00:21:07.135Z,19.85
2022-12-18T00:23:35.308Z,20.10
2022-12-18T00:26:04.054Z,20.10
2022-12-18T00:28:30.713Z,21.05
2022-12-18T00:31:08.103Z,20.75
2022-12-18T00:33:35.765Z,21.58
2022-12-18T00:36:03.659Z,20.15
2022-12-18T00:38:30.101Z,20.50
2022-12-18T00:40:56.763Z,22.33
2022-12-18T00:43:23.185Z,21.50
2022-12-18T00:45:50.178Z,18.70
2022-12-18T00:48:16.818Z,17.92
2022-12-18T00:50:43.442Z,18.40
2022-12-18T00:53:09.848Z,18.98
2022-12-18T00:55:37.929Z,19.27
2022-12-18T00:58:04.554Z,18.42
2022-12-18T01:00:31.573Z,18.73
2022-12-18T01:02:58.181Z,20.98
2022-12-18T01:05:24.707Z,20.35
2022-12-18T01:07:51.092Z,20.08
2022-12-18T01:10:17.738Z,19.55
2022-12-18T01:12:44.741Z,19.27
2022-12-18T01:15:13.338Z,18.98
2022-12-18T01:17:40.027Z,19.33
2022-12-18T01:20:07.227Z,18.63
2022-12-18T01:22:33.615Z,20.00
2022-12-18T01:25:00.085Z,21.73
2022-12-18T01:27:26.478Z,21.73
2022-12-18T01:29:52.914Z,21.50
2022-12-18T01:32:19.372Z,21.20
2022-12-18T01:34:45.991Z,19.25
2022-12-18T01:37:12.763Z,17.35
2022-12-18T01:39:39.222Z,16.48
2022-12-18T01:42:15.629Z,18.17
2022-12-18T01:44:54.187Z,18.10
2022-12-18T01:47:45.552Z,18.40
2022-12-18T01:50:15.731Z,19.75
2022-12-18T01:52:44.690Z,20.08
2022-12-18T01:55:13.661Z,17.83
2022-12-18T01:57:41.319Z,20.45
2022-12-18T02:00:19.686Z,20.92
2022-12-18T02:02:49.197Z,16.83
2022-12-18T02:05:26.331Z,18.30
2022-12-18T02:08:11.724Z,19.13
2022-12-18T02:10:58.328Z,18.05
2022-12-18T02:13:44.427Z,17.20
2022-12-18T02:16:25.443Z,16.65
2022-12-18T02:18:58.841Z,17.67
2022-12-18T02:24:58.792Z,16.67
2022-12-18T02:27:25.850Z,16.65
2022-12-18T02:29:58.573Z,15.13
2022-12-18T02:34:58.094Z,13.27
2022-12-18T02:37:27.667Z,12.00
2022-12-18T02:39:57.848Z,11.77
2022-12-18T02:42:25.017Z,12.15
2022-12-18T02:44:52.893Z,14.35
2022-12-18T02:47:23.335Z,14.57
2022-12-18T02:49:58.810Z,15.48
2022-12-18T02:52:43.493Z,15.25
2022-12-18T02:55:30.733Z,16.70
2022-12-18T02:58:04.190Z,17.80
2022-12-18T03:00:39.439Z,17.20
2022-12-18T03:03:16.920Z,15.52
2022-12-18T03:05:50.681Z,16.15
2022-12-18T03:08:25.074Z,16.13
2022-12-18T03:11:02.856Z,19.15
2022-12-18T03:13:34.337Z,17.75
2022-12-18T03:16:02.468Z,16.52
2022-12-18T03:18:39.642Z,19.00
2022-12-18T03:21:09.068Z,17.83
2022-12-18T03:23:41.192Z,14.93
2022-12-18T03:26:12.448Z,17.25
2022-12-18T03:28:46.200Z,15.43
2022-12-18T03:31:15.126Z,15.95
2022-12-18T03:33:54.726Z,17.10
2022-12-18T03:36:22.461Z,14.55
2022-12-18T03:38:49.003Z,15.18
2022-12-18T03:41:35.047Z,16.55
2022-12-18T03:44:19.335Z,13.95
2022-12-18T03:47:04.127Z,15.13
2022-12-18T03:49:48.728Z,14.80
2022-12-18T03:52:18.209Z,13.73
2022-12-18T03:54:46.510Z,16.92
2022-12-18T03:57:18.088Z,14.82
2022-12-18T03:59:47.019Z,13.73
2022-12-18T04:02:16.954Z,13.15
2022-12-18T04:04:45.545Z,13.27
2022-12-18T04:07:14.390Z,11.20
2022-12-18T04:09:43.071Z,11.23
2022-12-18T04:12:10.178Z,10.77
2022-12-18T04:14:36.711Z,9.13
2022-12-18T04:17:04.020Z,9.48
2022-12-18T04:19:30.462Z,8.75
2022-12-18T04:21:57.623Z,11.20
2022-12-18T04:24:24.195Z,11.38
2022-12-18T04:26:50.713Z,11.82
2022-12-18T04:29:17.399Z,9.40
2022-12-18T04:31:43.861Z,10.02
2022-12-18T04:34:10.308Z,11.80
2022-12-18T04:36:36.818Z,11.65
2022-12-18T04:39:03.268Z,10.52
2022-12-18T04:41:29.723Z,11.57
2022-12-18T04:43:56.225Z,11.95
2022-12-18T04:46:22.705Z,13.90
2022-12-18T04:48:49.400Z,13.48
2022-12-18T04:51:15.936Z,12.80
2022-12-18T04:53:42.724Z,10.30
2022-12-18T04:56:12.444Z,9.98
2022-12-18T04:58:40.632Z,10.40
2022-12-18T05:01:11.058Z,11.23
2022-12-18T05:03:38.619Z,13.52
2022-12-18T05:06:06.797Z,13.52
2022-12-18T05:08:33.688Z,13.40
2022-12-18T05:11:08.242Z,15.32
2022-12-18T05:13:36.422Z,14.23
2022-12-18T05:16:03.933Z,15.95
2022-12-18T05:18:30.638Z,16.38
2022-12-18T05:20:57.215Z,17.10
2022-12-18T05:23:24.960Z,14.18
2022-12-18T05:25:58.958Z,12.50
2022-12-18T05:28:27.298Z,11.55
2022-12-18T05:30:56.435Z,10.32
2022-12-18T05:33:25.541Z,10.38
2022-12-18T05:35:57.200Z,8.77
2022-12-18T05:38:25.878Z,8.77
2022-12-18T05:40:53.317Z,8.95
2022-12-18T05:43:22.828Z,11.13
2022-12-18T05:45:50.105Z,11.80
2022-12-18T05:48:17.496Z,9.90
2022-12-18T05:50:48.343Z,9.63
2022-12-18T05:53:17.083Z,9.63
2022-12-18T05:55:46.669Z,8.77
2022-12-18T05:58:15.655Z,7.70
2022-12-18T06:00:44.434Z,8.48
2022-12-18T06:03:13.018Z,8.02
2022-12-18T06:05:42.139Z,8.15
2022-12-18T06:08:08.797Z,8.00
2022-12-18T06:10:35.273Z,8.27
2022-12-18T06:13:01.763Z,9.15
2022-12-18T06:15:28.423Z,9.43
2022-12-18T06:17:55.218Z,9.35
2022-12-18T06:20:21.654Z,9.93
2022-12-18T06:22:48.350Z,9.85
2022-12-18T06:25:14.927Z,9.75
2022-12-18T06:27:41.433Z,8.00
2022-12-18T06:30:09.629Z,8.98
2022-12-18T06:32:36.052Z,9.85
2022-12-18T06:35:02.542Z,10.50
2022-12-18T06:37:29.249Z,10.77
2022-12-18T06:39:55.789Z,11.00
2022-12-18T06:42:22.391Z,12.68
2022-12-18T06:44:49.044Z,10.02
2022-12-18T06:47:15.503Z,11.02
2022-12-18T06:49:41.968Z,10.40
2022-12-18T06:52:08.363Z,10.93
2022-12-18T06:54:34.851Z,9.85
2022-12-18T06:57:01.325Z,12.60
2022-12-18T06:59:27.778Z,10.77
2022-12-18T07:01:54.790Z,11.80
2022-12-18T07:04:21.337Z,10.95
2022-12-18T07:06:47.774Z,10.10
2022-12-18T07:09:14.199Z,8.85
2022-12-18T07:11:40.567Z,9.40
2022-12-18T07:14:09.848Z,8.88
2022-12-18T07:16:36.612Z,9.55
2022-12-18T07:19:03.196Z,10.32
2022-12-18T07:21:29.739Z,9.63
2022-12-18T07:23:56.153Z,11.95
2022-12-18T07:26:23.001Z,11.80
2022-12-18T07:28:49.978Z,16.45
2022-12-18T07:31:22.061Z,15.50
2022-12-18T07:33:49.183Z,12.07
2022-12-18T07:36:15.824Z,11.52
2022-12-18T07:38:42.629Z,10.82
2022-12-18T07:41:11.951Z,12.75
2022-12-18T07:43:40.126Z,14.63
2022-12-18T07:46:08.425Z,13.75
2022-12-18T07:48:34.961Z,12.48
2022-12-18T07:51:06.702Z,12.80
2022-12-18T07:53:34.877Z,10.68
2022-12-18T07:58:51.220Z,10.27
2022-12-18T08:01:18.150Z,11.55
2022-12-18T08:03:45.093Z,9.65
2022-12-18T08:06:11.606Z,12.15
2022-12-18T08:08:38.393Z,15.18
2022-12-18T08:11:05.052Z,13.73
2022-12-18T08:13:31.747Z,13.73
2022-12-18T08:16:02.431Z,15.15
2022-12-18T08:18:29.226Z,15.02
2022-12-18T08:20:56.605Z,14.68
2022-12-18T08:23:26.459Z,15.88
2022-12-18T08:25:55.020Z,14.73
2022-12-18T08:28:21.508Z,15.55
2022-12-18T08:30:53.205Z,15.02
2022-12-18T08:33:19.759Z,15.82
2022-12-18T08:35:46.367Z,14.75
2022-12-18T08:38:12.782Z,15.15
2022-12-18T08:40:39.308Z,15.02
2022-12-18T08:43:41.640Z,16.27
2022-12-18T08:46:08.514Z,17.00
2022-12-18T08:48:34.980Z,15.70
2022-12-18T08:51:01.662Z,16.67
2022-12-18T08:53:34.078Z,17.85
2022-12-18T08:56:02.216Z,17.20
2022-12-18T08:58:28.648Z,16.58
2022-12-18T09:00:55.113Z,18.70
2022-12-18T09:03:23.557Z,17.40
2022-12-18T09:05:50.091Z,18.33
2022-12-18T09:08:16.496Z,18.83
2022-12-18T09:10:45.901Z,17.50
2022-12-18T09:13:13.314Z,16.50
2022-12-18T09:15:44.153Z,14.25
2022-12-18T09:18:10.595Z,14.82
2022-12-18T09:20:37.758Z,14.77
2022-12-18T09:23:04.742Z,15.65
2022-12-18T09:25:34.074Z,14.18
2022-12-18T09:28:01.145Z,14.93
2022-12-18T09:30:28.209Z,15.70
2022-12-18T09:32:54.904Z,16.17
2022-12-18T09:35:21.391Z,15.65
2022-12-18T09:37:48.069Z,18.25
2022-12-18T09:40:20.651Z,17.17
2022-12-18T09:42:53.154Z,17.58
2022-12-18T09:45:19.790Z,15.43
2022-12-18T09:47:48.515Z,16.88
2022-12-18T09:50:35.170Z,16.65
2022-12-18T09:53:11.073Z,16.75
2022-12-18T09:55:42.140Z,16.95
2022-12-18T09:58:45.314Z,16.67
2022-12-18T10:01:15.457Z,14.02
2022-12-18T10:03:42.231Z,14.95
2022-12-18T10:06:16.821Z,15.57
2022-12-18T10:09:13.005Z,15.45
2022-12-18T10:11:54.276Z,15.15
2022-12-18T10:14:39.215Z,14.23
2022-12-18T10:17:36.692Z,15.25
2022-12-18T10:20:21.188Z,36.08
2022-12-18T10:22:51.576Z,22.13
2022-12-18T10:25:22.660Z,21.63
2022-12-18T10:27:52.429Z,17.30
2022-12-18T10:30:21.995Z,16.92
2022-12-18T10:32:48.450Z,16.40
2022-12-18T10:35:20.148Z,15.27
2022-12-18T10:38:22.683Z,14.25
2022-12-18T10:40:56.753Z,13.55
2022-12-18T10:43:33.435Z,13.57
2022-12-18T10:46:06.881Z,12.43
2022-12-18T10:48:37.512Z,13.00
2022-12-18T10:51:12.888Z,13.48
2022-12-18T10:53:43.724Z,13.52
2022-12-18T10:56:10.589Z,12.93
2022-12-18T10:58:39.079Z,13.77
2022-12-18T11:01:21.213Z,13.43
2022-12-18T11:04:02.695Z,14.27
2022-12-18T11:06:30.185Z,14.43
2022-12-18T11:09:06.570Z,13.45
2022-12-18T11:11:39.062Z,14.40
2022-12-18T11:14:18.902Z,14.38
2022-12-18T11:17:24.415Z,15.55
2022-12-18T11:19:40.665Z,15.30
2022-12-18T11:22:28.553Z,13.38
2022-12-18T11:28:07.226Z,13.40
2022-12-18T11:30:36.180Z,14.82
2022-12-18T11:33:21.793Z,13.65
2022-12-18T11:36:04.606Z,17.55
2022-12-18T11:38:35.507Z,14.00
2022-12-18T11:41:23.699Z,12.18
2022-12-18T11:44:03.072Z,12.80
2022-12-18T11:46:42.312Z,13.75
2022-12-18T11:49:18.525Z,11.50
2022-12-18T11:52:03.151Z,10.40
2022-12-18T11:54:29.683Z,9.80
2022-12-18T11:57:28.168Z,10.27
2022-12-18T12:00:04.946Z,7.82
2022-12-18T12:02:59.378Z,8.52
2022-12-18T12:05:49.298Z,7.93
2022-12-18T12:08:39.264Z,8.75
2022-12-18T12:11:35.902Z,9.20
2022-12-18T12:14:16.702Z,8.05
2022-12-18T12:17:09.028Z,8.77
2022-12-18T12:19:55.020Z,8.68
2022-12-18T12:22:53.952Z,8.60
2022-12-18T12:25:35.559Z,8.18
2022-12-18T12:28:29.473Z,9.73
2022-12-18T12:31:21.710Z,8.57
2022-12-18T12:33:56.979Z,9.07
2022-12-18T12:36:29.387Z,8.38
2022-12-18T12:39:00.788Z,8.45
2022-12-18T12:41:52.273Z,8.85
2022-12-18T12:44:28.938Z,9.20
2022-12-18T12:46:59.905Z,9.73
2022-12-18T12:49:30.135Z,10.00
2022-12-18T12:52:05.971Z,9.60
2022-12-18T12:54:34.860Z,10.35
2022-12-18T12:57:16.014Z,9.68
2022-12-18T12:59:53.811Z,9.82
2022-12-18T13:02:36.912Z,11.02
2022-12-18T13:05:22.262Z,11.05
2022-12-18T13:07:55.858Z,9.45
2022-12-18T13:10:33.353Z,10.95
2022-12-18T13:13:13.412Z,10.63
2022-12-18T13:15:46.886Z,11.18
2022-12-18T13:18:18.491Z,10.73
2022-12-18T13:20:53.082Z,10.63
2022-12-18T13:23:24.902Z,11.05
2022-12-18T13:26:26.448Z,10.88
2022-12-18T13:28:57.210Z,12.32
2022-12-18T13:31:42.066Z,11.32
2022-12-18T13:34:28.025Z,11.73
2022-12-18T13:36:58.368Z,12.48
2022-12-18T13:39:35.194Z,11.80
2022-12-18T13:42:05.343Z,11.65
2022-12-18T13:44:44.608Z,15.90
2022-12-18T13:47:34.755Z,12.65
2022-12-18T13:50:02.773Z,13.35
2022-12-18T13:52:37.929Z,14.18
2022-12-18T13:55:08.096Z,12.68
2022-12-18T13:57:39.268Z,13.38
2022-12-18T14:00:29.524Z,14.55
2022-12-18T14:02:57.798Z,13.68
2022-12-18T14:05:32.586Z,15.65
2022-12-18T14:08:15.321Z,14.73
2022-12-18T14:10:49.086Z,15.15
2022-12-18T14:13:38.382Z,13.63
2022-12-18T14:16:07.316Z,13.98
2022-12-18T14:18:44.954Z,13.30
2022-12-18T14:21:30.226Z,13.35
2022-12-18T14:24:22.210Z,13.48
2022-12-18T14:26:50.799Z,12.65
2022-12-18T14:29:31.353Z,13.18
2022-12-18T14:32:17.356Z,13.25
2022-12-18T14:34:48.341Z,12.88
2022-12-18T14:37:18.160Z,14.65
2022-12-18T14:39:58.996Z,14.60
2022-12-18T14:42:29.139Z,13.18
2022-12-18T14:45:52.702Z,15.05
2022-12-18T14:48:23.687Z,11.50
2022-12-18T14:51:18.406Z,12.60
2022-12-18T14:53:55.307Z,12.38
2022-12-18T14:56:26.134Z,12.90
2022-12-18T14:59:23.744Z,13.32
2022-12-18T15:02:05.539Z,11.65
2022-12-18T15:04:44.207Z,12.95
2022-12-18T15:07:20.131Z,13.07
2022-12-18T15:10:13.016Z,15.93
2022-12-18T15:12:45.085Z,12.32
2022-12-18T15:15:47.690Z,13.82
2022-12-18T15:18:21.040Z,14.00
2022-12-18T15:20:49.955Z,13.93
2022-12-18T15:23:23.830Z,13.73
2022-12-18T15:26:11.475Z,14.25
2022-12-18T15:28:58.403Z,13.45
2022-12-18T15:31:38.288Z,14.85
2022-12-18T15:34:21.535Z,14.82
2022-12-18T15:36:47.988Z,14.70
2022-12-18T15:39:14.622Z,14.68
2022-12-18T15:41:41.501Z,14.85
2022-12-18T15:44:24.621Z,14.07
2022-12-18T15:46:51.048Z,14.65
2022-12-18T15:49:17.540Z,15.27
2022-12-18T15:51:44.027Z,14.63
2022-12-18T15:54:16.597Z,15.50
2022-12-18T15:57:02.108Z,16.38
2022-12-18T15:59:28.513Z,14.77
2022-12-18T16:01:56.016Z,15.25
2022-12-18T16:04:24.507Z,13.95
2022-12-18T16:07:14.553Z,14.40
2022-12-18T16:09:39.891Z,14.48
2022-12-18T16:12:11.114Z,16.60
2022-12-18T16:14:37.524Z,16.33
2022-12-18T16:17:09.826Z,15.25
2022-12-18T16:19:36.337Z,15.90
2022-12-18T16:22:02.735Z,14.77
2022-12-18T16:24:31.934Z,14.82
2022-12-18T16:27:00.748Z,16.15
2022-12-18T16:29:29.503Z,16.13
2022-12-18T16:31:56.966Z,16.80
2022-12-18T16:34:29.682Z,14.77
2022-12-18T16:37:10.369Z,15.32
2022-12-18T16:39:37.889Z,14.68
2022-12-18T16:42:17.844Z,16.42
2022-12-18T16:44:44.798Z,18.15
2022-12-18T16:47:12.932Z,17.20
2022-12-18T16:49:41.817Z,17.13
2022-12-18T16:52:09.215Z,18.55
2022-12-18T16:54:38.397Z,18.17
2022-12-18T16:57:05.471Z,18.30
2022-12-18T16:59:36.302Z,20.15
2022-12-18T17:02:02.886Z,19.50
2022-12-18T17:04:29.459Z,19.08
2022-12-18T17:06:55.863Z,18.70
2022-12-18T17:09:25.612Z,18.70
2022-12-18T17:11:53.545Z,18.30
2022-12-18T17:14:22.080Z,20.63
2022-12-18T17:16:57.843Z,19.92
2022-12-18T17:19:35.384Z,19.30
2022-12-18T17:22:01.850Z,19.83
2022-12-18T17:24:33.078Z,20.00
2022-12-18T17:27:01.526Z,18.90
2022-12-18T17:29:28.075Z,19.98
2022-12-18T17:31:54.492Z,18.65
2022-12-18T17:34:21.870Z,19.13
2022-12-18T17:36:48.306Z,20.73
2022-12-18T17:39:21.933Z,21.60
2022-12-18T17:41:49.384Z,20.20
2022-12-18T17:44:16.677Z,21.00
2022-12-18T17:46:43.769Z,23.63
2022-12-18T17:49:11.336Z,19.63
2022-12-18T17:51:37.969Z,18.00
2022-12-18T17:54:05.387Z,18.10
2022-12-18T17:56:32.873Z,19.00
2022-12-18T17:58:59.855Z,19.38
2022-12-18T18:01:27.021Z,20.55
2022-12-18T18:03:56.151Z,20.17
2022-12-18T18:06:25.157Z,18.70
2022-12-18T18:08:53.378Z,19.23
2022-12-18T18:11:40.068Z,18.38
2022-12-18T18:14:13.274Z,17.70
2022-12-18T18:16:42.836Z,17.60
2022-12-18T18:19:12.578Z,19.98
2022-12-18T18:21:41.151Z,16.77
2022-12-18T18:24:08.940Z,18.30
2022-12-18T18:26:36.816Z,19.08
2022-12-18T18:29:06.104Z,18.63
2022-12-18T18:31:35.326Z,16.65
2022-12-18T18:34:07.377Z,18.83
2022-12-18T18:36:34.548Z,17.77
2022-12-18T18:39:01.464Z,18.73
2022-12-18T18:41:29.877Z,17.95
2022-12-18T18:43:57.957Z,19.80
2022-12-18T18:46:25.047Z,19.08
2022-12-18T18:48:51.757Z,20.88
2022-12-18T18:51:21.216Z,25.20
2022-12-18T18:53:50.387Z,27.13
2022-12-18T18:56:56.550Z,26.80
2022-12-18T18:59:06.041Z,23.83
2022-12-18T19:01:32.984Z,24.25
2022-12-18T19:04:03.864Z,24.52
2022-12-18T19:06:30.496Z,26.08
2022-12-18T19:08:58.176Z,25.42
2022-12-18T19:11:44.837Z,26.15
2022-12-18T19:14:13.473Z,25.02
2022-12-18T19:16:40.515Z,24.88
2022-12-18T19:19:07.057Z,24.95
2022-12-18T19:21:34.835Z,27.08
2022-12-18T19:24:02.782Z,23.20
2022-12-18T19:26:29.589Z,24.13
2022-12-18T19:29:08.251Z,25.02
2022-12-18T19:31:37.244Z,26.73
2022-12-18T19:34:08.146Z,30.13
2022-12-18T19:36:37.739Z,25.70
2022-12-18T19:39:10.876Z,29.27
2022-12-18T19:41:37.768Z,25.95
2022-12-18T19:44:08.217Z,24.15
2022-12-18T19:46:35.736Z,25.52
2022-12-18T19:49:02.421Z,25.75
2022-12-18T19:51:30.367Z,25.58
2022-12-18T19:53:59.338Z,28.08
2022-12-18T19:56:31.146Z,24.05
2022-12-18T19:58:58.089Z,23.75
2022-12-18T20:01:25.872Z,25.02
2022-12-18T20:03:55.204Z,24.40
2022-12-18T20:06:34.755Z,20.25
2022-12-18T20:09:05.746Z,19.15
2022-12-18T20:11:33.557Z,19.40
2022-12-18T20:14:03.980Z,19.75
2022-12-18T20:16:30.696Z,13.35
2022-12-18T20:18:58.398Z,15.93
2022-12-18T20:21:25.305Z,13.88
2022-12-18T20:23:52.327Z,14.68
2022-12-18T20:26:19.346Z,15.05
2022-12-18T20:28:45.921Z,15.20
2022-12-18T20:31:13.523Z,16.42
2022-12-18T20:33:41.320Z,15.10
2022-12-18T20:36:13.784Z,21.02
2022-12-18T20:38:41.027Z,24.58
2022-12-18T20:41:16.453Z,25.45
2022-12-18T20:43:44.067Z,26.45
2022-12-18T20:46:13.053Z,26.63
2022-12-18T20:48:41.584Z,21.73
2022-12-18T20:51:10.630Z,20.92
2022-12-18T20:53:37.604Z,21.42
2022-12-18T20:56:09.877Z,19.27
2022-12-18T20:58:36.860Z,22.15
2022-12-18T21:01:14.999Z,22.45
2022-12-18T21:03:43.046Z,22.98
2022-12-18T21:06:10.525Z,18.45
2022-12-18T21:08:37.605Z,20.98
2022-12-18T21:11:54.776Z,18.20
2022-12-18T21:14:24.085Z,17.38
2022-12-18T21:16:51.068Z,20.38
2022-12-18T21:19:20.696Z,18.77
2022-12-18T21:21:47.372Z,17.80
2022-12-18T21:24:14.305Z,19.83
2022-12-18T21:26:45.384Z,19.95
2022-12-18T21:29:15.976Z,19.77
2022-12-18T21:31:43.234Z,18.65
2022-12-18T21:34:16.220Z,20.63
2022-12-18T21:36:42.615Z,21.92
2022-12-18T21:39:09.096Z,21.08
2022-12-18T21:41:55.357Z,20.10
2022-12-18T21:44:23.155Z,19.48
2022-12-18T21:46:56.768Z,19.75
2022-12-18T21:49:26.807Z,18.48
2022-12-18T21:51:55.869Z,15.93
2022-12-18T21:54:22.826Z,17.35
2022-12-18T21:56:52.281Z,16.52
2022-12-18T21:59:21.832Z,15.30
2022-12-18T22:01:49.528Z,15.05
2022-12-18T22:04:16.974Z,16.63
2022-12-18T22:06:44.360Z,14.77
2022-12-18T22:09:14.152Z,14.13
2022-12-18T22:11:40.784Z,13.60
2022-12-18T22:14:07.233Z,13.13
2022-12-18T22:16:34.230Z,13.57
2022-12-18T22:19:02.366Z,11.57
2022-12-18T22:21:31.059Z,11.75
2022-12-18T22:24:06.107Z,12.25
2022-12-18T22:26:39.774Z,11.52
2022-12-18T22:29:26.437Z,12.40
2022-12-18T22:31:52.905Z,11.70
2022-12-18T22:34:22.792Z,12.57
2022-12-18T22:36:49.792Z,13.70
2022-12-18T22:39:22.125Z,13.00
2022-12-18T22:41:49.474Z,12.55
2022-12-18T22:44:17.548Z,14.70
2022-12-18T22:47:06.051Z,14.40
2022-12-18T22:49:34.793Z,11.70
2022-12-18T22:52:02.113Z,12.38
2022-12-18T22:54:28.538Z,11.95
2022-12-18T22:56:55.453Z,12.25
2022-12-18T22:59:23.221Z,11.05
2022-12-18T23:01:52.925Z,11.48
2022-12-18T23:04:36.152Z,10.93
2022-12-18T23:07:05.157Z,12.02
2022-12-18T23:09:32.378Z,11.05
2022-12-18T23:11:59.166Z,11.50
2022-12-18T23:14:25.622Z,12.10
2022-12-18T23:16:53.241Z,13.27
2022-12-18T23:19:20.181Z,14.35
2022-12-18T23:21:47.128Z,14.10
2022-12-18T23:24:14.440Z,13.25
2022-12-18T23:26:41.165Z,13.43
2022-12-18T23:29:08.062Z,13.77
2022-12-18T23:31:37.400Z,13.73
2022-12-18T23:34:05.667Z,12.40
2022-12-18T23:36:35.911Z,14.35
2022-12-18T23:39:28.392Z,12.82
2022-12-18T23:41:56.146Z,14.73
2022-12-18T23:44:22.596Z,12.75
2022-12-18T23:46:49.198Z,12.57
2022-12-18T23:49:15.648Z,11.77
2022-12-18T23:51:42.134Z,12.90
2022-12-18T23:54:10.012Z,13.45
2022-12-18T23:56:36.485Z,13.13
2022-12-18T23:59:02.947Z,13.65
